Time;durP1;ratioP1;P1;durP2;ratioP2;P2;SDS_P1;SDS_P2;PMS_P1;PMS_P2;Temp;Humidity;BMP_temperature;BMP_pressure;BME280_temperature;BME280_humidity;BME280_pressure;Samples;Min_cycle;Max_cycle;Signal;HPM_P1;HPM_P2
2023/05/26 00:01:19;;;;;;;12.02;3.65;;;11.30;73.50;;;;;;5067503;28;20031;-69
2023/05/26 00:03:48;;;;;;;10.95;3.45;;;11.20;73.50;;;;;;5067024;28;20040;-68
2023/05/26 00:06:15;;;;;;;13.60;3.80;;;11.20;73.50;;;;;;5068714;28;20021;-68
2023/05/26 00:08:41;;;;;;;14.48;3.90;;;11.20;73.70;;;;;;5069063;28;20028;-69
2023/05/26 00:11:07;;;;;;;14.18;3.63;;;11.20;73.90;;;;;;5068087;28;20489;-69
2023/05/26 00:13:33;;;;;;;15.32;4.55;;;11.10;73.90;;;;;;5068311;28;20422;-69
2023/05/26 00:15:58;;;;;;;13.50;4.63;;;11.10;74.20;;;;;;5062865;28;20082;-69
2023/05/26 00:18:27;;;;;;;12.77;4.10;;;11.00;74.50;;;;;;5066892;28;20060;-69
2023/05/26 00:20:56;;;;;;;14.32;3.63;;;10.90;74.60;;;;;;5066847;28;20032;-69
2023/05/26 00:23:22;;;;;;;13.18;3.60;;;10.90;74.70;;;;;;5067278;28;20039;-69
2023/05/26 00:25:51;;;;;;;11.73;3.58;;;10.90;74.80;;;;;;5065962;28;20043;-69
2023/05/26 00:28:16;;;;;;;14.20;3.90;;;10.90;74.80;;;;;;5066913;28;20029;-67
2023/05/26 00:30:42;;;;;;;14.50;3.97;;;10.90;74.80;;;;;;5066000;28;20070;-68
2023/05/26 00:33:07;;;;;;;10.55;3.42;;;10.80;74.80;;;;;;5066401;28;20028;-68
2023/05/26 00:35:33;;;;;;;13.75;3.53;;;10.80;74.90;;;;;;5068919;28;20029;-68
2023/05/26 00:37:59;;;;;;;12.18;3.42;;;10.80;75.00;;;;;;5066945;28;20020;-69
2023/05/26 00:40:24;;;;;;;13.98;3.88;;;10.80;75.00;;;;;;5069749;28;20082;-69
2023/05/26 00:42:50;;;;;;;13.52;4.00;;;10.80;75.00;;;;;;5066462;28;20028;-69
2023/05/26 00:45:15;;;;;;;15.25;4.05;;;10.80;75.00;;;;;;5068139;28;20125;-68
2023/05/26 00:47:41;;;;;;;11.15;3.60;;;10.80;75.00;;;;;;5067889;28;20062;-69
2023/05/26 00:50:08;;;;;;;15.35;3.70;;;10.70;75.00;;;;;;5068209;28;20070;-69
2023/05/26 00:52:34;;;;;;;15.88;4.07;;;10.70;75.00;;;;;;5068898;28;20043;-69
2023/05/26 00:55:01;;;;;;;14.25;3.95;;;10.70;75.00;;;;;;5069336;28;20028;-69
2023/05/26 00:57:29;;;;;;;9.98;3.72;;;10.70;75.00;;;;;;5066602;28;20476;-68
2023/05/26 00:59:55;;;;;;;13.05;3.50;;;10.70;75.00;;;;;;5068933;28;20032;-68
2023/05/26 01:02:22;;;;;;;13.15;3.47;;;10.70;75.00;;;;;;5066053;28;20062;-68
2023/05/26 01:04:52;;;;;;;15.50;3.47;;;10.70;75.00;;;;;;5072671;28;20111;-68
2023/05/26 01:07:18;;;;;;;13.10;3.80;;;10.70;75.10;;;;;;5068924;28;20016;-69
2023/05/26 01:09:44;;;;;;;10.18;3.45;;;10.60;75.10;;;;;;5069744;28;20020;-68
2023/05/26 01:12:15;;;;;;;15.68;3.60;;;10.70;75.20;;;;;;5071164;28;20450;-68
2023/05/26 01:14:49;;;;;;;15.45;4.50;;;10.60;75.30;;;;;;5068130;28;20020;-68
2023/05/26 01:17:22;;;;;;;15.98;3.60;;;10.60;75.40;;;;;;5073120;28;20031;-68
2023/05/26 01:20:07;;;;;;;13.57;3.38;;;10.60;75.40;;;;;;5071928;28;20082;-68
2023/05/26 01:22:50;;;;;;;13.43;2.95;;;10.50;75.40;;;;;;5066839;28;20112;-68
2023/05/26 01:25:34;;;;;;;12.55;3.42;;;10.50;75.40;;;;;;5066390;28;20037;-68
2023/05/26 01:28:05;;;;;;;12.57;3.47;;;10.50;75.60;;;;;;5066295;28;20078;-68
2023/05/26 01:30:32;;;;;;;12.18;3.67;;;10.40;75.70;;;;;;5072434;28;20023;-68
2023/05/26 01:32:58;;;;;;;15.55;3.67;;;10.40;75.80;;;;;;5068752;28;20043;-68
2023/05/26 01:35:23;;;;;;;14.30;3.97;;;10.40;75.80;;;;;;5069921;28;20056;-71
2023/05/26 01:37:49;;;;;;;15.38;3.70;;;10.40;75.90;;;;;;5069380;28;20434;-68
2023/05/26 01:40:15;;;;;;;12.07;3.80;;;10.40;76.00;;;;;;5068572;28;20044;-69
2023/05/26 01:42:51;;;;;;;13.50;3.80;;;10.30;76.00;;;;;;5071207;28;20036;-68
2023/05/26 01:45:21;;;;;;;12.63;3.75;;;10.30;76.40;;;;;;5072516;28;20039;-69
2023/05/26 01:47:50;;;;;;;9.70;3.22;;;10.30;76.30;;;;;;5072262;28;20560;-69
2023/05/26 01:50:21;;;;;;;12.55;3.17;;;10.30;76.30;;;;;;5069970;28;20033;-69
2023/05/26 01:52:50;;;;;;;16.92;3.92;;;10.30;76.40;;;;;;5070869;28;20029;-69
2023/05/26 01:55:19;;;;;;;15.48;3.50;;;10.30;76.40;;;;;;5072451;28;20151;-69
2023/05/26 01:57:47;;;;;;;13.85;3.58;;;10.20;76.40;;;;;;5072018;28;20024;-70
2023/05/26 02:00:13;;;;;;;11.55;3.28;;;10.20;76.40;;;;;;5072053;28;20441;-69
2023/05/26 02:02:38;;;;;;;12.60;3.38;;;10.30;76.50;;;;;;5072057;28;20099;-69
2023/05/26 02:05:04;;;;;;;15.88;3.50;;;10.30;76.40;;;;;;5071215;28;20025;-70
2023/05/26 02:07:30;;;;;;;16.20;4.70;;;10.30;76.30;;;;;;5070637;28;20019;-69
2023/05/26 02:09:56;;;;;;;12.73;3.47;;;10.30;76.40;;;;;;5070702;28;20390;-69
2023/05/26 02:12:21;;;;;;;13.85;3.58;;;10.20;76.30;;;;;;5071965;28;20032;-69
2023/05/26 02:14:47;;;;;;;10.88;2.97;;;10.20;76.50;;;;;;5072326;28;20025;-69
2023/05/26 02:17:13;;;;;;;11.93;3.38;;;10.20;76.60;;;;;;5071177;28;20376;-69
2023/05/26 02:19:40;;;;;;;13.60;3.63;;;10.20;76.60;;;;;;5071985;28;20017;-69
2023/05/26 02:22:06;;;;;;;13.45;3.50;;;10.20;76.60;;;;;;5071766;28;20502;-69
2023/05/26 02:24:32;;;;;;;11.57;3.55;;;10.20;76.60;;;;;;5070866;28;20051;-69
2023/05/26 02:26:57;;;;;;;12.52;3.30;;;10.20;76.60;;;;;;5073800;28;20020;-69
2023/05/26 02:29:23;;;;;;;17.73;4.13;;;10.20;76.60;;;;;;5075533;28;20028;-69
2023/05/26 02:31:48;;;;;;;11.38;3.03;;;10.10;76.60;;;;;;5075461;28;20024;-69
2023/05/26 02:34:14;;;;;;;12.32;3.85;;;10.10;76.60;;;;;;5073128;28;20029;-69
2023/05/26 02:36:40;;;;;;;10.68;3.30;;;10.10;76.70;;;;;;5072028;28;20158;-69
2023/05/26 02:39:05;;;;;;;11.20;3.03;;;10.10;76.70;;;;;;5071343;28;20436;-68
2023/05/26 02:41:31;;;;;;;13.48;3.22;;;10.10;76.70;;;;;;5071729;28;20029;-69
2023/05/26 02:43:56;;;;;;;14.70;3.63;;;10.10;76.70;;;;;;5071883;28;20020;-69
2023/05/26 02:46:22;;;;;;;11.02;3.22;;;10.10;76.70;;;;;;5071974;28;20483;-69
2023/05/26 02:48:47;;;;;;;13.77;3.60;;;10.10;76.80;;;;;;5069883;28;20021;-69
2023/05/26 02:51:13;;;;;;;13.27;3.67;;;10.00;76.70;;;;;;5073307;28;20032;-69
2023/05/26 02:53:40;;;;;;;12.20;3.30;;;10.10;76.70;;;;;;5071080;28;20028;-70
2023/05/26 02:56:06;;;;;;;17.95;3.67;;;10.10;76.70;;;;;;5067856;28;20035;-69
2023/05/26 02:58:32;;;;;;;13.63;3.42;;;10.10;76.70;;;;;;5069808;28;20112;-69
2023/05/26 03:00:57;;;;;;;13.30;3.35;;;10.10;76.80;;;;;;5071437;28;20453;-68
2023/05/26 03:03:23;;;;;;;10.88;2.95;;;10.00;76.70;;;;;;5072565;28;20040;-66
2023/05/26 03:05:49;;;;;;;13.02;3.67;;;10.00;76.70;;;;;;5069828;28;20104;-67
2023/05/26 03:08:14;;;;;;;11.15;3.42;;;10.00;76.70;;;;;;5068703;28;20024;-67
2023/05/26 03:10:40;;;;;;;15.18;3.42;;;10.00;76.70;;;;;;5071859;28;20386;-66
2023/05/26 03:13:06;;;;;;;13.57;3.45;;;10.00;76.70;;;;;;5070793;28;20086;-68
2023/05/26 03:15:35;;;;;;;10.60;3.15;;;10.00;76.70;;;;;;5070451;28;20028;-69
2023/05/26 03:18:01;;;;;;;11.77;2.85;;;10.00;76.60;;;;;;5070808;28;20032;-68
2023/05/26 03:20:26;;;;;;;12.63;3.22;;;10.00;76.60;;;;;;5071117;28;20103;-69
2023/05/26 03:22:52;;;;;;;10.10;3.05;;;10.00;76.60;;;;;;5067791;28;20024;-68
2023/05/26 03:25:18;;;;;;;14.70;3.30;;;9.90;76.60;;;;;;5070948;28;20029;-70
2023/05/26 03:27:44;;;;;;;14.95;3.33;;;9.90;76.70;;;;;;5069400;28;20036;-69
2023/05/26 03:30:10;;;;;;;14.20;3.60;;;9.90;76.60;;;;;;5071539;28;20078;-70
2023/05/26 03:32:35;;;;;;;11.52;3.60;;;9.90;76.70;;;;;;5070578;28;20379;-70
2023/05/26 03:35:01;;;;;;;10.88;3.10;;;9.90;76.80;;;;;;5070378;28;20514;-70
2023/05/26 03:37:27;;;;;;;12.75;3.20;;;9.80;76.90;;;;;;5069419;28;20129;-70
2023/05/26 03:39:52;;;;;;;11.13;3.25;;;9.80;76.90;;;;;;5070606;28;20546;-70
2023/05/26 03:42:18;;;;;;;12.88;3.15;;;9.80;76.90;;;;;;5070269;28;21549;-70
2023/05/26 03:44:44;;;;;;;15.07;3.67;;;9.80;77.00;;;;;;5068808;28;20051;-70
2023/05/26 03:47:09;;;;;;;14.38;3.55;;;9.70;77.10;;;;;;5069911;28;20036;-70
2023/05/26 03:49:35;;;;;;;14.90;3.90;;;9.70;77.10;;;;;;5068337;28;20028;-70
2023/05/26 03:52:01;;;;;;;11.35;3.25;;;9.70;77.30;;;;;;5068088;28;20028;-69
2023/05/26 03:54:26;;;;;;;10.15;3.15;;;9.70;77.40;;;;;;5074447;28;20039;-69
2023/05/26 03:56:54;;;;;;;12.25;3.05;;;9.70;77.40;;;;;;5069832;28;20032;-69
2023/05/26 03:59:19;;;;;;;14.80;3.67;;;9.70;77.50;;;;;;5069836;28;20036;-69
2023/05/26 04:01:45;;;;;;;15.40;3.67;;;9.70;77.60;;;;;;5070257;28;20024;-68
2023/05/26 04:04:11;;;;;;;14.13;3.55;;;9.70;77.50;;;;;;5069277;28;20039;-67
2023/05/26 04:06:37;;;;;;;17.45;3.55;;;9.70;77.50;;;;;;5070290;28;20060;-69
2023/05/26 04:09:03;;;;;;;13.02;3.50;;;9.60;77.70;;;;;;5073418;28;20012;-69
2023/05/26 04:11:29;;;;;;;13.13;3.70;;;9.60;77.80;;;;;;5071544;28;20016;-68
2023/05/26 04:13:55;;;;;;;12.63;3.13;;;9.60;77.80;;;;;;5069610;28;20044;-70
2023/05/26 04:16:20;;;;;;;15.73;3.65;;;9.70;77.90;;;;;;5069991;28;20102;-67
2023/05/26 04:18:46;;;;;;;11.90;3.30;;;9.70;77.90;;;;;;5067838;28;20376;-68
2023/05/26 04:21:12;;;;;;;15.48;3.40;;;9.80;77.80;;;;;;5070625;28;20130;-68
2023/05/26 04:23:38;;;;;;;14.20;3.70;;;9.70;77.70;;;;;;5069868;28;20107;-68
2023/05/26 04:26:04;;;;;;;10.63;3.20;;;9.80;77.80;;;;;;5069416;28;20017;-70
2023/05/26 04:28:29;;;;;;;15.35;3.80;;;9.80;77.80;;;;;;5069121;28;20052;-68
2023/05/26 04:30:55;;;;;;;15.48;3.45;;;9.80;77.80;;;;;;5069563;28;20060;-69
2023/05/26 04:33:22;;;;;;;12.43;3.85;;;9.80;77.90;;;;;;5068708;28;20438;-68
2023/05/26 04:35:47;;;;;;;15.40;3.75;;;9.80;78.00;;;;;;5070591;28;20103;-68
2023/05/26 04:38:15;;;;;;;11.70;3.47;;;9.90;78.00;;;;;;5069259;28;20128;-68
2023/05/26 04:40:42;;;;;;;15.05;3.90;;;10.00;78.00;;;;;;5069025;28;20078;-68
2023/05/26 04:43:08;;;;;;;15.88;4.03;;;10.00;77.80;;;;;;5069135;28;20107;-69
2023/05/26 04:45:35;;;;;;;18.48;4.47;;;10.00;77.80;;;;;;5069054;28;20047;-69
2023/05/26 04:48:00;;;;;;;18.77;4.15;;;10.10;78.00;;;;;;5069261;28;20525;-69
2023/05/26 04:50:26;;;;;;;14.57;4.18;;;10.10;78.00;;;;;;5067624;28;20020;-69
2023/05/26 04:52:52;;;;;;;14.65;3.95;;;10.20;77.90;;;;;;5069749;28;20544;-69
2023/05/26 04:55:18;;;;;;;19.40;4.65;;;10.30;78.40;;;;;;5068676;28;20036;-69
2023/05/26 04:57:44;;;;;;;14.50;3.88;;;10.30;78.20;;;;;;5068140;28;20475;-69
2023/05/26 05:00:12;;;;;;;16.20;3.90;;;10.60;78.30;;;;;;5067264;28;20077;-68
2023/05/26 05:02:37;;;;;;;14.80;3.65;;;11.20;77.10;;;;;;5072081;28;20033;-68
2023/05/26 05:05:03;;;;;;;14.43;4.22;;;11.80;75.70;;;;;;5068326;28;20444;-68
2023/05/26 05:07:28;;;;;;;15.48;3.75;;;12.30;73.20;;;;;;5068737;28;20032;-69
2023/05/26 05:09:54;;;;;;;12.10;3.90;;;12.80;71.50;;;;;;5068800;28;20498;-68
2023/05/26 05:12:20;;;;;;;15.32;4.32;;;13.30;69.90;;;;;;5068510;28;20029;-68
2023/05/26 05:14:45;;;;;;;14.20;4.00;;;13.70;68.50;;;;;;5072617;28;20364;-69
2023/05/26 05:17:11;;;;;;;12.05;4.00;;;14.00;67.30;;;;;;5067174;28;20116;-68
2023/05/26 05:19:37;;;;;;;12.57;3.80;;;14.20;66.60;;;;;;5068534;28;20039;-69
2023/05/26 05:22:02;;;;;;;15.65;4.30;;;14.50;65.70;;;;;;5068903;28;20106;-69
2023/05/26 05:24:28;;;;;;;14.40;3.80;;;14.70;64.90;;;;;;5065869;28;20123;-68
2023/05/26 05:26:53;;;;;;;14.55;3.67;;;15.10;64.10;;;;;;5067719;28;20493;-68
2023/05/26 05:29:19;;;;;;;11.90;3.35;;;15.30;63.00;;;;;;5068745;28;20028;-69
2023/05/26 05:31:45;;;;;;;15.90;3.50;;;15.70;62.40;;;;;;5067795;28;20024;-68
2023/05/26 05:34:10;;;;;;;12.45;3.70;;;15.80;61.60;;;;;;5067554;28;20356;-69
2023/05/26 05:36:36;;;;;;;16.27;4.18;;;16.00;60.90;;;;;;5070017;28;20375;-68
2023/05/26 05:39:01;;;;;;;15.00;3.95;;;15.50;61.10;;;;;;5069161;28;20530;-69
2023/05/26 05:41:28;;;;;;;12.75;3.53;;;15.00;62.20;;;;;;5067216;28;20021;-69
2023/05/26 05:43:56;;;;;;;16.65;3.92;;;14.60;63.30;;;;;;5068052;28;20035;-68
2023/05/26 05:46:23;;;;;;;12.32;3.70;;;14.30;64.10;;;;;;5068606;28;20491;-70
2023/05/26 05:48:49;;;;;;;16.55;4.10;;;14.60;64.50;;;;;;5068138;28;20549;-69
2023/05/26 05:51:15;;;;;;;13.75;4.07;;;15.00;63.30;;;;;;5068113;28;20025;-68
2023/05/26 05:53:40;;;;;;;14.95;3.83;;;14.70;63.00;;;;;;5066736;28;20036;-67
2023/05/26 05:56:06;;;;;;;11.85;3.55;;;14.20;64.00;;;;;;5067056;28;20032;-67
2023/05/26 05:58:31;;;;;;;20.05;4.82;;;14.20;64.40;;;;;;5068828;28;20028;-69
2023/05/26 06:00:57;;;;;;;12.77;4.05;;;13.80;64.80;;;;;;5068517;28;20029;-69
2023/05/26 06:03:22;;;;;;;13.63;3.90;;;13.60;65.60;;;;;;5068960;28;20154;-69
2023/05/26 06:05:48;;;;;;;18.05;4.47;;;13.80;65.60;;;;;;5071790;28;20025;-69
2023/05/26 06:08:13;;;;;;;13.55;4.07;;;13.70;65.30;;;;;;5069959;28;20009;-69
2023/05/26 06:10:39;;;;;;;14.10;3.80;;;13.70;66.00;;;;;;5068191;28;20762;-69
2023/05/26 06:13:04;;;;;;;15.30;4.75;;;13.80;65.90;;;;;;5077644;28;20029;-69
2023/05/26 06:15:30;;;;;;;21.25;4.85;;;13.60;65.80;;;;;;5067365;28;20101;-70
2023/05/26 06:17:55;;;;;;;16.73;4.50;;;13.30;66.30;;;;;;5068339;28;20045;-69
2023/05/26 06:20:21;;;;;;;17.67;4.88;;;13.40;67.10;;;;;;5067076;28;20024;-68
2023/05/26 06:22:47;;;;;;;16.52;5.47;;;13.70;66.90;;;;;;5074383;28;20031;-69
2023/05/26 06:25:12;;;;;;;14.73;3.97;;;14.00;66.30;;;;;;5070581;28;20040;-70
2023/05/26 06:27:38;;;;;;;18.23;4.97;;;14.30;66.10;;;;;;5076751;28;20021;-67
2023/05/26 06:30:04;;;;;;;14.80;3.78;;;14.40;65.60;;;;;;5078745;28;20103;-66
2023/05/26 06:32:29;;;;;;;17.70;4.40;;;14.40;65.50;;;;;;5084610;28;20024;-68
2023/05/26 06:34:55;;;;;;;15.25;4.63;;;14.30;64.90;;;;;;5082531;28;20023;-69
2023/05/26 06:37:20;;;;;;;16.42;4.55;;;14.20;65.10;;;;;;5074091;28;20056;-67
2023/05/26 06:39:46;;;;;;;17.35;4.75;;;14.10;65.00;;;;;;5071656;28;20090;-68
2023/05/26 06:42:11;;;;;;;15.98;4.63;;;14.10;65.00;;;;;;5072959;28;20049;-68
2023/05/26 06:44:37;;;;;;;18.77;4.72;;;14.00;64.70;;;;;;5077276;28;20034;-68
2023/05/26 06:47:03;;;;;;;18.75;4.78;;;13.70;64.80;;;;;;5074098;28;20028;-68
2023/05/26 06:49:28;;;;;;;15.65;4.03;;;13.70;65.90;;;;;;5077578;28;20034;-68
2023/05/26 06:51:54;;;;;;;13.27;4.45;;;13.90;66.00;;;;;;5080725;28;20016;-69
2023/05/26 06:54:20;;;;;;;15.02;4.57;;;14.30;65.70;;;;;;5085564;28;20664;-69
2023/05/26 06:56:45;;;;;;;20.25;5.20;;;14.60;64.90;;;;;;5081827;28;20564;-68
2023/05/26 06:59:11;;;;;;;18.98;5.43;;;14.20;63.50;;;;;;5075410;28;20479;-69
2023/05/26 07:01:36;;;;;;;19.20;5.03;;;14.00;63.90;;;;;;5071030;28;20078;-69
2023/05/26 07:04:02;;;;;;;16.30;4.20;;;13.90;64.60;;;;;;5070950;28;20082;-69
2023/05/26 07:06:28;;;;;;;11.85;3.75;;;13.90;64.90;;;;;;5071737;28;20013;-69
2023/05/26 07:08:53;;;;;;;16.40;4.40;;;14.20;64.90;;;;;;5072671;28;20375;-69
2023/05/26 07:11:19;;;;;;;15.05;5.07;;;14.30;64.20;;;;;;5069785;28;20540;-69
2023/05/26 07:13:46;;;;;;;16.15;4.30;;;14.20;63.50;;;;;;5069148;28;20066;-69
2023/05/26 07:16:12;;;;;;;18.33;4.63;;;13.90;63.80;;;;;;5067783;28;20044;-69
2023/05/26 07:18:38;;;;;;;17.77;4.55;;;13.70;64.40;;;;;;5069510;28;20524;-69
2023/05/26 07:21:04;;;;;;;17.55;4.40;;;13.60;65.10;;;;;;5071470;28;20036;-68
2023/05/26 07:23:31;;;;;;;18.30;4.65;;;13.50;65.60;;;;;;5070033;28;20033;-69
2023/05/26 07:25:58;;;;;;;13.98;3.83;;;13.50;65.50;;;;;;5071562;28;20594;-69
2023/05/26 07:28:25;;;;;;;15.60;5.03;;;13.70;65.50;;;;;;5084778;28;20048;-68
2023/05/26 07:30:51;;;;;;;17.02;4.53;;;13.90;65.10;;;;;;5069687;28;20020;-68
2023/05/26 07:33:16;;;;;;;16.33;4.30;;;14.10;64.80;;;;;;5072340;28;20025;-69
2023/05/26 07:35:42;;;;;;;17.88;4.80;;;14.30;63.90;;;;;;5071832;28;20040;-69
2023/05/26 07:38:07;;;;;;;15.30;4.60;;;14.40;63.60;;;;;;5072472;28;21348;-69
2023/05/26 07:40:35;;;;;;;14.18;4.38;;;14.60;63.60;;;;;;5085477;28;20028;-70
2023/05/26 07:43:03;;;;;;;14.27;4.40;;;14.60;62.80;;;;;;5074084;28;20457;-70
2023/05/26 07:45:29;;;;;;;16.00;3.72;;;14.60;62.90;;;;;;5071113;28;20059;-67
2023/05/26 07:47:55;;;;;;;14.50;4.10;;;14.60;63.00;;;;;;5071673;28;20032;-67
2023/05/26 07:50:20;;;;;;;13.73;4.22;;;14.80;62.80;;;;;;5073768;28;20040;-67
2023/05/26 07:52:46;;;;;;;14.90;4.53;;;14.90;62.30;;;;;;5074775;28;20028;-67
2023/05/26 07:55:12;;;;;;;16.77;4.05;;;14.90;61.80;;;;;;5079044;28;20037;-68
2023/05/26 07:57:37;;;;;;;12.23;3.50;;;14.80;62.00;;;;;;5070206;28;20032;-68
2023/05/26 08:00:05;;;;;;;13.90;4.00;;;14.80;62.30;;;;;;5074728;28;20103;-68
2023/05/26 08:02:31;;;;;;;13.75;4.00;;;14.80;62.20;;;;;;5074573;28;20414;-68
2023/05/26 08:04:56;;;;;;;14.07;4.63;;;14.80;62.10;;;;;;5071282;28;20078;-67
2023/05/26 08:07:22;;;;;;;15.57;4.45;;;14.80;62.20;;;;;;5069827;28;20028;-68
2023/05/26 08:09:47;;;;;;;13.45;4.15;;;14.90;62.00;;;;;;5072727;28;20017;-68
2023/05/26 08:12:13;;;;;;;14.57;3.97;;;14.90;61.90;;;;;;5071992;28;20107;-68
2023/05/26 08:14:39;;;;;;;14.05;4.13;;;14.90;62.30;;;;;;5069795;28;20479;-67
2023/05/26 08:17:05;;;;;;;13.02;4.20;;;15.00;62.40;;;;;;5069281;28;20081;-68
2023/05/26 08:19:31;;;;;;;11.23;3.70;;;15.20;62.40;;;;;;5069308;28;20055;-67
2023/05/26 08:21:56;;;;;;;15.68;4.40;;;15.40;62.10;;;;;;5077227;28;20060;-69
2023/05/26 08:24:24;;;;;;;17.58;4.38;;;15.70;62.20;;;;;;5072413;28;20055;-69
2023/05/26 08:26:50;;;;;;;13.75;3.65;;;15.60;60.40;;;;;;5090002;28;20039;-68
2023/05/26 08:29:15;;;;;;;14.50;4.18;;;15.70;59.80;;;;;;5068698;28;20502;-69
2023/05/26 08:31:41;;;;;;;14.60;3.92;;;15.70;59.40;;;;;;5070490;28;20029;-68
2023/05/26 08:34:07;;;;;;;14.35;4.53;;;15.50;58.70;;;;;;5068771;28;20455;-70
2023/05/26 08:36:33;;;;;;;13.63;4.13;;;15.40;58.00;;;;;;5071077;28;20034;-69
2023/05/26 08:38:59;;;;;;;13.45;4.05;;;15.30;58.10;;;;;;5076368;28;20028;-68
2023/05/26 08:41:28;;;;;;;21.05;4.88;;;15.40;58.60;;;;;;5072396;28;20036;-69
2023/05/26 08:43:58;;;;;;;13.40;4.03;;;15.50;57.90;;;;;;5072531;28;20170;-68
2023/05/26 08:46:35;;;;;;;13.27;4.15;;;15.30;57.70;;;;;;5078713;28;20043;-69
2023/05/26 08:49:01;;;;;;;10.68;3.70;;;15.30;57.60;;;;;;5076316;28;20383;-67
2023/05/26 08:51:30;;;;;;;15.15;4.57;;;15.40;58.00;;;;;;5076156;28;20095;-68
2023/05/26 08:53:56;;;;;;;13.07;3.85;;;15.40;57.00;;;;;;5067129;28;20742;-69
2023/05/26 08:56:22;;;;;;;12.45;3.85;;;15.40;57.50;;;;;;5073183;28;20031;-69
2023/05/26 08:58:51;;;;;;;17.40;4.38;;;15.70;57.20;;;;;;5069253;28;20021;-69
2023/05/26 09:01:16;;;;;;;15.38;3.83;;;15.60;56.10;;;;;;5070032;28;20025;-68
2023/05/26 09:03:42;;;;;;;16.50;4.85;;;15.60;56.20;;;;;;5070437;28;20552;-69
2023/05/26 09:06:08;;;;;;;16.20;4.57;;;15.50;56.30;;;;;;5075933;28;20061;-69
2023/05/26 09:08:33;;;;;;;13.82;4.47;;;15.40;57.10;;;;;;5068354;28;20107;-68
2023/05/26 09:11:19;;;;;;;11.55;3.85;;;15.50;57.10;;;;;;5068967;28;20048;-69
2023/05/26 09:13:50;;;;;;;12.77;3.67;;;15.80;57.10;;;;;;5071890;28;20025;-68
2023/05/26 09:16:15;;;;;;;12.00;4.07;;;16.00;56.70;;;;;;5073360;28;20024;-68
2023/05/26 09:18:41;;;;;;;11.15;3.40;;;16.20;54.60;;;;;;5069399;28;20029;-67
2023/05/26 09:21:07;;;;;;;11.10;3.67;;;16.40;54.80;;;;;;5076519;28;20552;-68
2023/05/26 09:23:33;;;;;;;9.23;3.28;;;16.50;54.20;;;;;;5074883;28;20107;-68
2023/05/26 09:25:58;;;;;;;13.43;3.97;;;16.60;53.90;;;;;;5068763;28;20025;-69
2023/05/26 09:28:24;;;;;;;12.80;4.10;;;16.80;53.70;;;;;;5067271;28;20073;-68
2023/05/26 09:30:50;;;;;;;13.88;3.60;;;16.80;53.70;;;;;;5058273;28;20602;-68
2023/05/26 09:33:17;;;;;;;11.73;3.35;;;16.90;53.40;;;;;;5059500;28;20506;-67
2023/05/26 09:35:49;;;;;;;12.07;3.47;;;17.00;53.10;;;;;;5091189;28;20119;-69
2023/05/26 09:38:16;;;;;;;14.50;4.40;;;17.10;52.60;;;;;;5063099;28;20044;-69
2023/05/26 09:40:43;;;;;;;10.75;3.70;;;17.10;52.80;;;;;;5066381;28;20055;-68
2023/05/26 09:43:09;;;;;;;11.32;3.30;;;17.20;53.20;;;;;;5061361;28;20024;-69
2023/05/26 09:45:36;;;;;;;12.60;3.65;;;17.30;52.70;;;;;;5064709;28;20032;-70
2023/05/26 09:48:03;;;;;;;8.93;3.28;;;17.30;53.00;;;;;;5065742;28;20029;-68
2023/05/26 09:50:30;;;;;;;14.77;3.75;;;17.40;52.70;;;;;;5065001;28;20020;-68
2023/05/26 09:52:57;;;;;;;11.77;3.47;;;17.30;52.40;;;;;;5067897;28;20056;-68
2023/05/26 09:55:22;;;;;;;14.13;3.95;;;17.30;52.60;;;;;;5066737;28;20036;-68
2023/05/26 09:57:50;;;;;;;12.68;4.15;;;17.50;52.60;;;;;;5069567;28;20029;-68
2023/05/26 10:00:17;;;;;;;14.18;4.25;;;17.50;51.90;;;;;;5068312;28;20020;-68
2023/05/26 10:02:45;;;;;;;11.98;4.10;;;17.50;51.80;;;;;;5073646;28;20222;-69
2023/05/26 10:05:11;;;;;;;13.27;3.88;;;17.30;51.10;;;;;;5073443;28;20028;-68
2023/05/26 10:07:38;;;;;;;11.10;3.83;;;17.30;51.70;;;;;;5076621;28;20425;-68
2023/05/26 10:10:06;;;;;;;12.40;3.88;;;17.30;51.30;;;;;;5075052;28;20020;-69
2023/05/26 10:12:34;;;;;;;12.05;3.97;;;17.30;51.70;;;;;;5083443;28;20032;-69
2023/05/26 10:15:01;;;;;;;12.55;4.03;;;17.50;51.40;;;;;;5070280;28;20021;-68
2023/05/26 10:17:27;;;;;;;12.40;4.13;;;17.60;50.30;;;;;;5080461;28;20028;-69
2023/05/26 10:19:54;;;;;;;7.63;3.10;;;17.70;50.40;;;;;;5075872;28;20414;-68
2023/05/26 10:22:28;;;;;;;9.43;2.95;;;17.90;50.20;;;;;;5082184;28;20100;-69
2023/05/26 10:25:00;;;;;;;11.65;3.58;;;18.10;50.00;;;;;;5081448;28;20028;-69
2023/05/26 10:27:36;;;;;;;10.98;3.45;;;18.20;49.20;;;;;;5063952;28;20035;-69
2023/05/26 10:30:08;;;;;;;11.10;3.75;;;18.10;49.30;;;;;;5069379;28;20031;-69
2023/05/26 10:32:55;;;;;;;12.32;3.63;;;18.30;49.20;;;;;;5080602;28;20241;-69
2023/05/26 10:35:22;;;;;;;12.55;3.92;;;18.30;47.90;;;;;;5072340;28;20074;-69
2023/05/26 10:38:02;;;;;;;11.02;3.60;;;18.20;46.90;;;;;;5069977;28;20387;-69
2023/05/26 10:40:52;;;;;;;10.90;4.07;;;18.00;47.00;;;;;;5068876;28;20032;-69
2023/05/26 10:43:22;;;;;;;11.27;3.53;;;18.00;47.30;;;;;;5080038;28;20494;-68
2023/05/26 10:45:57;;;;;;;10.95;3.40;;;18.10;48.00;;;;;;5066580;28;20029;-69
2023/05/26 10:48:36;;;;;;;11.52;3.58;;;18.30;48.10;;;;;;5064037;28;20078;-69
2023/05/26 10:51:28;;;;;;;10.93;3.47;;;18.30;46.30;;;;;;5067293;28;20025;-69
2023/05/26 10:53:56;;;;;;;9.07;3.10;;;18.00;47.00;;;;;;5063531;28;20024;-69
2023/05/26 10:56:34;;;;;;;12.52;3.55;;;18.10;46.70;;;;;;5083834;28;20030;-68
2023/05/26 10:59:02;;;;;;;12.35;3.63;;;18.00;47.30;;;;;;5067353;28;20020;-68
2023/05/26 11:01:29;;;;;;;11.88;3.30;;;18.20;47.80;;;;;;5072287;28;20078;-69
2023/05/26 11:03:57;;;;;;;8.07;2.90;;;18.40;47.60;;;;;;5072997;28;20054;-69
2023/05/26 11:06:50;;;;;;;11.90;3.55;;;18.60;47.30;;;;;;5070565;28;20043;-68
2023/05/26 11:09:19;;;;;;;8.48;3.40;;;18.70;47.10;;;;;;5073032;28;20032;-67
2023/05/26 11:11:59;;;;;;;8.95;3.33;;;18.90;47.10;;;;;;5073132;28;20162;-66
2023/05/26 11:14:33;;;;;;;9.70;2.78;;;18.90;46.60;;;;;;5082079;28;20030;-67
2023/05/26 11:17:04;;;;;;;11.07;3.22;;;19.00;46.10;;;;;;5088689;28;20070;-65
2023/05/26 11:19:34;;;;;;;8.53;3.10;;;19.10;45.70;;;;;;5081830;28;20368;-67
2023/05/26 11:22:05;;;;;;;12.68;4.00;;;19.20;46.10;;;;;;5072350;28;20058;-67
2023/05/26 11:24:31;;;;;;;12.68;3.45;;;18.90;45.30;;;;;;5073784;28;20028;-66
2023/05/26 11:27:01;;;;;;;10.05;3.22;;;18.90;46.10;;;;;;5071922;28;20418;-67
2023/05/26 11:29:27;;;;;;;8.73;2.65;;;19.10;46.10;;;;;;5075088;28;20025;-66
2023/05/26 11:31:53;;;;;;;9.52;3.03;;;19.30;45.90;;;;;;5074316;28;20031;-66
2023/05/26 11:34:18;;;;;;;10.60;3.35;;;19.50;45.50;;;;;;5073592;28;20469;-66
2023/05/26 11:36:46;;;;;;;8.00;3.38;;;19.60;45.50;;;;;;5071105;28;20025;-66
2023/05/26 11:39:12;;;;;;;6.90;2.45;;;19.30;42.90;;;;;;5068470;28;20519;-66
2023/05/26 11:41:38;;;;;;;11.48;3.08;;;19.20;43.80;;;;;;5066388;28;20039;-66
2023/05/26 11:44:12;;;;;;;10.02;3.25;;;19.20;44.40;;;;;;5063405;28;20096;-65
2023/05/26 11:46:38;;;;;;;9.60;2.92;;;19.30;44.50;;;;;;5064439;28;20049;-65
2023/05/26 11:49:04;;;;;;;8.65;3.20;;;19.50;45.00;;;;;;5063217;28;20024;-66
2023/05/26 11:51:31;;;;;;;9.98;3.33;;;19.60;45.50;;;;;;5067289;28;20029;-65
2023/05/26 11:53:58;;;;;;;9.50;3.25;;;19.80;45.30;;;;;;5067917;28;20032;-66
2023/05/26 11:56:36;;;;;;;8.50;3.45;;;20.00;44.90;;;;;;5065127;28;20062;-65
2023/05/26 11:59:03;;;;;;;8.45;2.90;;;20.20;45.00;;;;;;5064032;28;20031;-66
2023/05/26 12:01:31;;;;;;;9.02;3.03;;;20.30;44.50;;;;;;5060771;28;20028;-65
2023/05/26 12:04:01;;;;;;;10.50;3.13;;;20.50;43.70;;;;;;5062180;28;20032;-66
2023/05/26 12:06:29;;;;;;;8.05;3.03;;;20.40;43.80;;;;;;5066835;28;20091;-66
2023/05/26 12:09:03;;;;;;;9.20;3.65;;;20.40;43.80;;;;;;5061143;28;20071;-66
2023/05/26 12:11:29;;;;;;;8.40;3.47;;;20.40;44.00;;;;;;5071941;28;20016;-66
2023/05/26 12:13:57;;;;;;;8.65;3.08;;;20.30;43.90;;;;;;5061464;28;20070;-66
2023/05/26 12:16:28;;;;;;;8.68;2.92;;;20.50;44.20;;;;;;5075416;28;20042;-67
2023/05/26 12:18:55;;;;;;;12.27;3.17;;;20.70;44.10;;;;;;5077328;28;20030;-66
2023/05/26 12:21:23;;;;;;;10.55;2.97;;;20.80;42.90;;;;;;5083443;28;20021;-65
2023/05/26 12:23:49;;;;;;;10.15;3.15;;;20.70;43.30;;;;;;5063908;28;20383;-66
2023/05/26 12:26:16;;;;;;;9.98;2.88;;;20.70;42.80;;;;;;5069105;28;20032;-65
2023/05/26 12:28:43;;;;;;;9.85;3.45;;;20.90;42.80;;;;;;5064569;28;20028;-65
2023/05/26 12:31:09;;;;;;;9.48;3.10;;;20.60;42.10;;;;;;5069106;28;20043;-65
2023/05/26 12:33:35;;;;;;;9.63;3.13;;;20.20;42.40;;;;;;5065305;28;20028;-65
2023/05/26 12:36:01;;;;;;;12.10;3.13;;;20.30;43.00;;;;;;5079736;28;20025;-64
2023/05/26 12:38:27;;;;;;;9.95;2.75;;;20.50;43.30;;;;;;5067918;28;20054;-65